Time;durP1;ratioP1;P1;durP2;ratioP2;P2;SDS_P1;SDS_P2;PMS_P1;PMS_P2;Temp;Humidity;BMP_temperature;BMP_pressure;BME280_temperature;BME280_humidity;BME280_pressure;Samples;Min_cycle;Max_cycle;Signal;HPM_P1;HPM_P2
2024/01/05 00:01:21;;;;;;;8.60;6.27;;;1.40;99.90;;;;;;4958593;28;20493;-62
2024/01/05 00:03:51;;;;;;;8.60;6.80;;;1.40;99.90;;;;;;4967812;28;20542;-62
2024/01/05 00:06:19;;;;;;;7.30;6.07;;;1.40;99.90;;;;;;4969608;28;20848;-62
2024/01/05 00:08:47;;;;;;;6.70;5.63;;;1.40;99.90;;;;;;4967047;28;20466;-62
2024/01/05 00:11:18;;;;;;;7.50;5.60;;;1.40;99.90;;;;;;4966086;28;20844;-63
2024/01/05 00:13:46;;;;;;;9.90;5.03;;;1.40;99.90;;;;;;4963560;28;20586;-63
2024/01/05 00:16:18;;;;;;;9.30;6.00;;;1.40;99.90;;;;;;4965225;28;20476;-61
2024/01/05 00:18:46;;;;;;;7.30;5.60;;;1.50;99.90;;;;;;4967966;28;21084;-62
2024/01/05 00:21:22;;;;;;;6.97;5.67;;;1.40;99.90;;;;;;4965661;28;20491;-62
2024/01/05 00:23:51;;;;;;;7.43;5.70;;;1.40;99.90;;;;;;4963907;28;20458;-61
2024/01/05 00:26:20;;;;;;;6.90;5.77;;;1.40;99.90;;;;;;4961768;28;20466;-62
2024/01/05 00:28:50;;;;;;;7.20;5.80;;;1.40;99.90;;;;;;4967476;28;20481;-63
2024/01/05 00:31:18;;;;;;;6.90;5.30;;;1.40;99.90;;;;;;4965196;28;20542;-63
2024/01/05 00:33:46;;;;;;;7.73;5.57;;;1.40;99.90;;;;;;4966288;28;21161;-63
2024/01/05 00:36:15;;;;;;;6.70;5.10;;;1.40;99.90;;;;;;4967074;28;20562;-63
2024/01/05 00:38:47;;;;;;;7.43;6.00;;;1.40;99.90;;;;;;4968281;28;20473;-63
2024/01/05 00:41:15;;;;;;;7.20;5.60;;;1.40;99.90;;;;;;4963148;28;21027;-63
2024/01/05 00:43:43;;;;;;;7.77;5.53;;;1.40;99.90;;;;;;4961820;28;20472;-63
2024/01/05 00:46:11;;;;;;;7.03;5.67;;;1.40;99.90;;;;;;4964539;28;20497;-63
2024/01/05 00:48:39;;;;;;;7.17;6.00;;;1.50;99.90;;;;;;4965338;28;20477;-63
2024/01/05 00:51:08;;;;;;;6.33;5.30;;;1.40;99.90;;;;;;4966535;28;20505;-63
2024/01/05 00:53:36;;;;;;;5.80;4.90;;;1.40;99.90;;;;;;4964117;28;20584;-63
2024/01/05 00:56:05;;;;;;;5.53;4.40;;;1.40;99.90;;;;;;4969026;28;20975;-62
2024/01/05 00:58:34;;;;;;;6.47;5.07;;;1.40;99.90;;;;;;4962341;28;20470;-63
2024/01/05 01:01:02;;;;;;;6.47;5.27;;;1.40;99.90;;;;;;4963741;28;20524;-62
2024/01/05 01:03:30;;;;;;;6.40;5.57;;;1.40;99.90;;;;;;4958651;28;20550;-63
2024/01/05 01:05:58;;;;;;;6.00;4.97;;;1.40;99.90;;;;;;4965260;28;20480;-61
2024/01/05 01:08:26;;;;;;;7.30;4.93;;;1.40;99.90;;;;;;4960232;28;20557;-62
2024/01/05 01:10:54;;;;;;;7.20;4.67;;;1.40;99.90;;;;;;4959141;28;20497;-62
2024/01/05 01:13:23;;;;;;;5.20;4.70;;;1.50;99.90;;;;;;4959823;28;20928;-61
2024/01/05 01:15:51;;;;;;;6.47;5.57;;;1.50;99.90;;;;;;4961093;28;20487;-62
2024/01/05 01:18:19;;;;;;;5.37;4.67;;;1.40;99.90;;;;;;4959234;28;21014;-63
2024/01/05 01:20:47;;;;;;;5.73;4.83;;;1.40;99.90;;;;;;4958599;28;23835;-63
2024/01/05 01:23:15;;;;;;;5.23;4.60;;;1.50;99.90;;;;;;4964562;28;20474;-62
2024/01/05 01:25:43;;;;;;;5.17;4.20;;;1.50;99.90;;;;;;4962357;28;20559;-62
2024/01/05 01:28:11;;;;;;;6.83;5.10;;;1.40;99.90;;;;;;4962729;28;20525;-62
2024/01/05 01:30:41;;;;;;;5.40;4.60;;;1.40;99.90;;;;;;4963737;28;20508;-62
2024/01/05 01:33:09;;;;;;;5.17;4.57;;;1.50;99.90;;;;;;4957648;28;20478;-63
2024/01/05 01:38:20;;;;;;;6.37;4.70;;;1.50;99.90;;;;;;5013230;28;20453;-90
2024/01/05 01:40:52;;;;;;;11.33;4.30;;;1.60;99.90;;;;;;5020755;28;20472;-92
2024/01/05 01:43:34;;;;;;;5.53;4.50;;;1.60;99.90;;;;;;5019881;28;20429;-91
2024/01/05 01:46:18;;;;;;;5.43;4.60;;;1.60;99.90;;;;;;4996790;28;20481;-90
2024/01/05 01:48:52;;;;;;;6.67;4.30;;;1.50;99.90;;;;;;4995770;28;20576;-92
2024/01/05 01:51:36;;;;;;;6.33;4.57;;;1.50;99.90;;;;;;4998144;28;20610;-92
2024/01/05 01:54:11;;;;;;;5.30;4.67;;;1.50;99.90;;;;;;4995292;28;20524;-91
2024/01/05 01:56:48;;;;;;;8.03;4.63;;;1.50;99.90;;;;;;5002308;28;20474;-90
2024/01/05 01:59:21;;;;;;;5.20;4.67;;;1.50;99.90;;;;;;4992024;28;20447;-90
2024/01/05 02:02:12;;;;;;;5.30;4.60;;;1.50;99.90;;;;;;4996514;28;20496;-90
2024/01/05 02:04:44;;;;;;;7.20;5.40;;;1.50;99.90;;;;;;4993383;28;20561;-92
2024/01/05 02:07:12;;;;;;;6.30;5.33;;;1.50;99.90;;;;;;4999665;28;20501;-91
2024/01/05 02:09:41;;;;;;;6.00;4.20;;;1.50;99.90;;;;;;4999560;28;20454;-91
2024/01/05 02:12:10;;;;;;;5.40;4.90;;;1.50;99.90;;;;;;4993383;28;20442;-91
2024/01/05 02:14:40;;;;;;;5.53;5.03;;;1.50;99.90;;;;;;4995887;28;20528;-90
2024/01/05 02:17:34;;;;;;;5.83;4.67;;;1.50;99.90;;;;;;4992845;28;20637;-91
2024/01/05 02:20:08;;;;;;;5.97;4.83;;;1.50;99.90;;;;;;4992486;28;20489;-92
2024/01/05 02:22:39;;;;;;;6.23;4.97;;;1.50;99.90;;;;;;4997577;28;20456;-91
2024/01/05 02:25:12;;;;;;;6.40;5.23;;;1.50;99.90;;;;;;4995030;28;20478;-91
2024/01/05 02:27:42;;;;;;;7.53;5.37;;;1.50;99.90;;;;;;4996451;28;20449;-91
2024/01/05 02:30:18;;;;;;;5.97;5.03;;;1.50;99.90;;;;;;4996540;28;20533;-90
2024/01/05 02:32:58;;;;;;;6.30;4.90;;;1.50;99.90;;;;;;4994882;28;20460;-91
2024/01/05 02:35:33;;;;;;;6.10;5.50;;;1.50;99.90;;;;;;4995191;28;20513;-92
2024/01/05 02:38:02;;;;;;;5.53;4.77;;;1.50;99.90;;;;;;4996601;28;20472;-91
2024/01/05 02:40:32;;;;;;;6.23;5.53;;;1.50;99.90;;;;;;4992161;28;20484;-91
2024/01/05 02:43:01;;;;;;;7.43;6.13;;;1.50;99.90;;;;;;5000128;28;20442;-89
2024/01/05 02:45:31;;;;;;;6.53;5.37;;;1.60;99.90;;;;;;4996548;28;20462;-90
2024/01/05 02:48:02;;;;;;;10.20;6.00;;;1.60;99.90;;;;;;4996320;28;20454;-92
2024/01/05 02:50:33;;;;;;;9.03;5.63;;;1.60;99.90;;;;;;5004186;28;20496;-92
2024/01/05 02:53:03;;;;;;;9.73;6.37;;;1.60;99.90;;;;;;4997130;28;20468;-92
2024/01/05 02:55:49;;;;;;;8.93;5.70;;;1.60;99.90;;;;;;4999642;28;20509;-92
2024/01/05 02:58:29;;;;;;;6.97;5.47;;;1.60;99.90;;;;;;5000167;28;20454;-91
2024/01/05 03:00:58;;;;;;;7.30;5.57;;;1.60;99.90;;;;;;4995601;28;20449;-90
2024/01/05 03:03:32;;;;;;;7.50;5.80;;;1.60;99.90;;;;;;5002343;28;20532;-92
2024/01/05 03:06:16;;;;;;;8.43;6.20;;;1.60;99.90;;;;;;4999970;28;20446;-89
2024/01/05 03:08:56;;;;;;;7.10;5.60;;;1.60;99.90;;;;;;4995177;28;20455;-91
2024/01/05 03:11:56;;;;;;;9.00;5.43;;;1.60;99.90;;;;;;4996027;28;20485;-92
2024/01/05 03:14:40;;;;;;;9.67;5.70;;;1.60;99.90;;;;;;4998845;28;20481;-92
2024/01/05 03:17:08;;;;;;;9.27;6.17;;;1.60;99.90;;;;;;5001657;28;20450;-90
2024/01/05 03:19:42;;;;;;;7.97;6.20;;;1.60;99.90;;;;;;5000722;28;20495;-91
2024/01/05 03:22:20;;;;;;;7.87;5.87;;;1.60;99.90;;;;;;5000959;28;20764;-92
2024/01/05 03:24:48;;;;;;;6.80;5.60;;;1.60;99.90;;;;;;5002235;28;20529;-91
2024/01/05 03:27:17;;;;;;;10.30;5.83;;;1.60;99.90;;;;;;5000990;28;20451;-91
2024/01/05 03:29:48;;;;;;;8.77;5.50;;;1.60;99.90;;;;;;5003796;28;20524;-92
2024/01/05 03:32:20;;;;;;;6.27;4.97;;;1.60;99.90;;;;;;4999665;28;20460;-91
2024/01/05 03:34:53;;;;;;;6.50;5.30;;;1.60;99.90;;;;;;4999971;28;20498;-91
2024/01/05 03:37:24;;;;;;;8.53;6.10;;;1.60;99.90;;;;;;4994275;28;20463;-92
2024/01/05 03:40:04;;;;;;;8.00;5.47;;;1.60;99.90;;;;;;5003452;28;20488;-90
2024/01/05 03:42:34;;;;;;;9.10;6.03;;;1.60;99.90;;;;;;4999378;28;20458;-92
2024/01/05 03:45:22;;;;;;;7.10;5.47;;;1.60;99.90;;;;;;5000674;28;20502;-91
2024/01/05 03:47:53;;;;;;;7.47;5.23;;;1.60;99.90;;;;;;5001140;28;20468;-91
2024/01/05 03:50:22;;;;;;;8.37;6.07;;;1.70;99.90;;;;;;5004762;28;20462;-91
2024/01/05 03:52:51;;;;;;;6.80;5.20;;;1.60;99.90;;;;;;5004358;28;20502;-91
2024/01/05 03:55:21;;;;;;;7.53;5.43;;;1.70;99.90;;;;;;4999678;28;20482;-91
2024/01/05 04:00:38;;;;;;;6.80;5.77;;;1.70;99.90;;;;;;4996860;28;20466;-91
2024/01/05 04:03:08;;;;;;;8.00;5.50;;;1.70;99.90;;;;;;4986826;28;20477;-91
2024/01/05 04:05:40;;;;;;;9.43;5.50;;;1.70;99.90;;;;;;4996955;28;20473;-92
2024/01/05 04:08:17;;;;;;;7.13;5.30;;;1.70;99.90;;;;;;4997866;28;20474;-91
2024/01/05 04:10:46;;;;;;;10.33;6.20;;;1.70;99.90;;;;;;5006062;28;20727;-91
2024/01/05 04:13:16;;;;;;;7.80;4.83;;;1.70;99.90;;;;;;5011063;28;20445;-93
2024/01/05 04:15:53;;;;;;;6.67;4.83;;;1.70;99.90;;;;;;5004179;28;20477;-91
2024/01/05 04:18:22;;;;;;;8.03;5.43;;;1.70;99.90;;;;;;5000083;28;20454;-91
2024/01/05 04:20:53;;;;;;;8.27;5.87;;;1.70;99.90;;;;;;4995805;28;20461;-92
2024/01/05 04:23:22;;;;;;;6.00;5.00;;;1.70;99.90;;;;;;4998441;28;20450;-91
2024/01/05 04:25:51;;;;;;;8.77;5.43;;;1.70;99.90;;;;;;5006093;28;20500;-91
2024/01/05 04:28:20;;;;;;;6.97;5.67;;;1.70;99.90;;;;;;4997318;28;20454;-91
2024/01/05 04:30:52;;;;;;;8.20;5.67;;;1.70;99.90;;;;;;5000255;28;20486;-91
2024/01/05 04:33:21;;;;;;;11.83;6.20;;;1.60;99.90;;;;;;4998146;28;20455;-92
2024/01/05 04:35:52;;;;;;;7.43;5.10;;;1.60;99.90;;;;;;4999948;28;20502;-92
2024/01/05 04:38:20;;;;;;;8.50;5.00;;;1.60;99.90;;;;;;4997849;28;20529;-90
2024/01/05 04:40:50;;;;;;;8.80;5.60;;;1.60;99.90;;;;;;4997028;28;20473;-91
2024/01/05 04:43:19;;;;;;;8.83;6.07;;;1.60;99.90;;;;;;4998056;28;20542;-93
2024/01/05 04:45:48;;;;;;;8.30;6.10;;;1.60;99.90;;;;;;4997009;28;20457;-90
2024/01/05 04:48:34;;;;;;;7.60;5.90;;;1.60;99.90;;;;;;4997136;28;20446;-91
2024/01/05 04:51:26;;;;;;;7.00;5.13;;;1.60;99.90;;;;;;4998237;28;20484;-90
2024/01/05 04:53:56;;;;;;;8.20;5.93;;;1.60;99.90;;;;;;4986362;28;20472;-91
2024/01/05 04:56:27;;;;;;;8.33;5.80;;;1.60;99.90;;;;;;4988542;28;20485;-90
2024/01/05 05:01:52;;;;;;;7.87;6.10;;;1.60;99.90;;;;;;4992824;28;20466;-92
2024/01/05 05:04:31;;;;;;;7.87;5.37;;;1.60;99.90;;;;;;4996801;28;20469;-90
2024/01/05 05:07:04;;;;;;;7.60;5.57;;;1.50;99.90;;;;;;5000422;28;20705;-91
2024/01/05 05:09:38;;;;;;;9.67;5.33;;;1.50;99.90;;;;;;4996826;28;20445;-91
2024/01/05 05:12:10;;;;;;;8.43;5.67;;;1.50;99.90;;;;;;4999860;28;20482;-92
2024/01/05 05:14:46;;;;;;;9.43;5.93;;;1.50;99.90;;;;;;4994662;28;20778;-92
2024/01/05 05:17:17;;;;;;;8.67;6.30;;;1.50;99.90;;;;;;4989064;28;20478;-91
2024/01/05 05:19:47;;;;;;;7.73;5.47;;;1.50;99.90;;;;;;4992423;28;20456;-91
2024/01/05 05:22:16;;;;;;;8.10;5.67;;;1.50;99.90;;;;;;4998781;28;20458;-91
2024/01/05 05:24:50;;;;;;;7.50;5.40;;;1.60;99.90;;;;;;4997212;28;20490;-91
2024/01/05 05:27:21;;;;;;;6.33;5.20;;;1.50;99.90;;;;;;4994422;28;20521;-89
2024/01/05 05:29:52;;;;;;;6.70;4.43;;;1.60;99.90;;;;;;4992871;28;20482;-91
2024/01/05 05:32:22;;;;;;;8.87;5.13;;;1.60;99.90;;;;;;4998501;28;20458;-91
2024/01/05 05:37:58;;;;;;;5.43;4.30;;;1.50;99.90;;;;;;5008656;23;20953;-67
2024/01/05 05:40:26;;;;;;;6.97;5.20;;;1.60;99.90;;;;;;4999572;28;20574;-67
2024/01/05 05:42:55;;;;;;;6.57;5.27;;;1.60;99.90;;;;;;5002356;28;20964;-67
2024/01/05 05:45:23;;;;;;;6.00;5.10;;;1.60;99.90;;;;;;4995200;28;20587;-66
2024/01/05 05:47:51;;;;;;;5.67;4.77;;;1.60;99.90;;;;;;4985057;28;20973;-67
2024/01/05 05:50:20;;;;;;;6.30;4.77;;;1.60;99.90;;;;;;4983401;28;20580;-67
2024/01/05 05:52:51;;;;;;;6.77;4.90;;;1.60;99.90;;;;;;4978562;28;20565;-67
2024/01/05 05:55:19;;;;;;;8.00;4.87;;;1.50;99.90;;;;;;4982380;28;20579;-67
2024/01/05 05:57:47;;;;;;;6.20;5.13;;;1.50;99.90;;;;;;4978485;28;20604;-67
2024/01/05 06:00:15;;;;;;;6.93;4.70;;;1.50;99.90;;;;;;4976077;28;20494;-67
2024/01/05 06:02:43;;;;;;;5.73;4.70;;;1.50;99.90;;;;;;4972704;28;20916;-67
2024/01/05 06:05:11;;;;;;;5.30;4.67;;;1.50;99.90;;;;;;4976835;28;20568;-67
2024/01/05 06:07:41;;;;;;;7.00;4.77;;;1.50;99.90;;;;;;4977558;28;20524;-67
2024/01/05 06:10:09;;;;;;;6.10;4.60;;;1.50;99.90;;;;;;4980221;28;20543;-67
2024/01/05 06:12:37;;;;;;;8.03;5.07;;;1.50;99.90;;;;;;4973138;28;20465;-67
2024/01/05 06:15:07;;;;;;;7.80;4.90;;;1.50;99.90;;;;;;4986398;28;20481;-67
2024/01/05 06:17:35;;;;;;;6.63;4.80;;;1.50;99.90;;;;;;4975023;28;20509;-67
2024/01/05 06:20:04;;;;;;;5.93;4.60;;;1.50;99.90;;;;;;4977668;28;20481;-67
2024/01/05 06:22:32;;;;;;;6.23;5.10;;;1.50;99.90;;;;;;4962339;28;20480;-68
2024/01/05 06:25:02;;;;;;;8.27;5.57;;;1.50;99.90;;;;;;4971095;28;20529;-68
2024/01/05 06:27:30;;;;;;;6.10;4.67;;;1.50;99.90;;;;;;4982833;28;20488;-67
2024/01/05 06:30:08;;;;;;;6.30;4.93;;;1.50;99.90;;;;;;4978113;28;20997;-67
2024/01/05 06:32:37;;;;;;;7.47;4.90;;;1.50;99.90;;;;;;4978223;28;20589;-67
2024/01/05 06:35:07;;;;;;;6.00;4.73;;;1.50;99.90;;;;;;4956837;28;20577;-67
2024/01/05 06:37:35;;;;;;;6.23;4.90;;;1.50;99.90;;;;;;4965242;28;20827;-67
2024/01/05 06:40:05;;;;;;;6.90;5.10;;;1.40;99.90;;;;;;4975837;28;20580;-67
2024/01/05 06:42:33;;;;;;;7.07;5.10;;;1.40;99.90;;;;;;4976131;28;20610;-67
2024/01/05 06:45:01;;;;;;;5.73;5.07;;;1.40;99.90;;;;;;4980396;28;20563;-67
2024/01/05 06:47:29;;;;;;;6.10;4.60;;;1.40;99.90;;;;;;4972995;28;20558;-67
2024/01/05 06:49:57;;;;;;;5.60;4.67;;;1.40;99.90;;;;;;4980244;28;20500;-67
2024/01/05 06:52:25;;;;;;;7.87;5.43;;;1.40;99.90;;;;;;4978014;28;20495;-67
2024/01/05 06:54:53;;;;;;;6.10;4.90;;;1.40;99.90;;;;;;4966801;28;20606;-67
2024/01/05 06:57:23;;;;;;;6.00;5.00;;;1.40;99.90;;;;;;4973129;28;20599;-67
2024/01/05 06:59:51;;;;;;;4.93;4.43;;;1.40;99.90;;;;;;4975223;28;20498;-67
2024/01/05 07:02:19;;;;;;;5.23;4.73;;;1.40;99.90;;;;;;4982648;28;20830;-67
2024/01/05 07:04:47;;;;;;;5.60;4.10;;;1.40;99.90;;;;;;4978789;28;21136;-67
2024/01/05 07:07:15;;;;;;;7.27;4.93;;;1.50;99.90;;;;;;4985577;28;20564;-67
2024/01/05 07:09:44;;;;;;;5.97;4.77;;;1.40;99.90;;;;;;4978238;28;20539;-67
2024/01/05 07:12:12;;;;;;;5.30;3.60;;;1.40;99.90;;;;;;4981530;28;20505;-67
2024/01/05 07:14:41;;;;;;;5.80;4.43;;;1.40;99.90;;;;;;4983102;28;20470;-67
2024/01/05 07:17:09;;;;;;;6.50;5.10;;;1.40;99.90;;;;;;4977379;28;20846;-67
2024/01/05 07:19:38;;;;;;;5.70;4.80;;;1.40;99.90;;;;;;4975425;28;20466;-67
2024/01/05 07:22:06;;;;;;;5.23;4.67;;;1.40;99.90;;;;;;4982204;28;20860;-67
2024/01/05 07:24:36;;;;;;;6.50;4.40;;;1.40;99.90;;;;;;4985965;28;21041;-67
2024/01/05 07:27:05;;;;;;;5.63;4.30;;;1.40;99.90;;;;;;4982862;28;20489;-67
2024/01/05 07:29:33;;;;;;;5.97;4.23;;;1.40;99.90;;;;;;4980654;28;20472;-67
2024/01/05 07:32:04;;;;;;;6.23;4.47;;;1.40;99.90;;;;;;4964314;28;20556;-67
2024/01/05 07:34:32;;;;;;;6.27;4.50;;;1.50;99.90;;;;;;4971542;28;20461;-67
2024/01/05 07:37:00;;;;;;;7.03;4.93;;;1.50;99.90;;;;;;5005641;23;21139;-63
2024/01/05 07:39:28;;;;;;;6.07;4.60;;;1.40;99.90;;;;;;5001205;28;20559;-63
2024/01/05 07:41:56;;;;;;;4.57;4.03;;;1.40;99.90;;;;;;4989819;28;20479;-63
2024/01/05 07:44:24;;;;;;;5.70;4.53;;;1.40;99.90;;;;;;4986565;28;20472;-63
2024/01/05 07:46:52;;;;;;;5.33;4.00;;;1.40;99.90;;;;;;5003150;28;21017;-63
2024/01/05 07:49:22;;;;;;;5.20;4.50;;;1.30;99.90;;;;;;4991981;28;20850;-63
2024/01/05 07:51:50;;;;;;;6.27;4.60;;;1.30;99.90;;;;;;4992123;28;20479;-62
2024/01/05 07:54:18;;;;;;;5.23;4.30;;;1.30;99.90;;;;;;4999600;28;21079;-62
2024/01/05 07:56:46;;;;;;;5.53;4.20;;;1.30;99.90;;;;;;5003925;28;20526;-62
2024/01/05 07:59:16;;;;;;;5.40;4.50;;;1.30;99.90;;;;;;4995201;28;20984;-62
2024/01/05 08:01:44;;;;;;;6.23;4.43;;;1.30;99.90;;;;;;4993976;28;20940;-62
2024/01/05 08:04:14;;;;;;;5.87;4.50;;;1.30;99.90;;;;;;4998368;28;20977;-62
2024/01/05 08:06:43;;;;;;;5.87;3.97;;;1.30;99.90;;;;;;4994160;28;20507;-62
2024/01/05 08:09:12;;;;;;;5.70;4.30;;;1.30;99.90;;;;;;4996552;28;20495;-62
2024/01/05 08:11:40;;;;;;;5.67;4.17;;;1.30;99.90;;;;;;4996254;28;20900;-62
2024/01/05 08:14:08;;;;;;;4.70;3.90;;;1.30;99.90;;;;;;4999949;28;20514;-62
2024/01/05 08:16:36;;;;;;;8.40;4.40;;;1.30;99.90;;;;;;5002192;28;20579;-63
2024/01/05 08:19:04;;;;;;;6.37;4.60;;;1.30;99.90;;;;;;5002591;28;20497;-62
2024/01/05 08:21:32;;;;;;;5.13;4.60;;;1.30;99.90;;;;;;5001459;28;20484;-62
2024/01/05 08:24:03;;;;;;;5.87;4.60;;;1.30;99.90;;;;;;4998377;28;20564;-62
2024/01/05 08:26:30;;;;;;;6.43;4.70;;;1.30;99.90;;;;;;4997443;28;20491;-62
2024/01/05 08:28:58;;;;;;;4.47;4.07;;;1.30;99.90;;;;;;4995596;28;21041;-62
2024/01/05 08:31:26;;;;;;;5.97;4.60;;;1.20;99.90;;;;;;4996889;28;20492;-63
2024/01/05 08:33:55;;;;;;;4.10;3.70;;;1.20;99.90;;;;;;4997910;28;20504;-62
2024/01/05 08:36:23;;;;;;;5.00;4.47;;;1.20;99.90;;;;;;5001184;28;20586;-62
2024/01/05 08:38:51;;;;;;;6.30;4.87;;;1.20;99.90;;;;;;4999841;28;20487;-63
2024/01/05 08:41:20;;;;;;;5.50;3.90;;;1.20;99.90;;;;;;5002647;28;21913;-63
2024/01/05 08:43:49;;;;;;;5.40;4.40;;;1.20;99.90;;;;;;5003142;28;20510;-63
2024/01/05 08:46:17;;;;;;;4.00;3.57;;;1.20;99.90;;;;;;4999415;28;24322;-63
2024/01/05 08:48:45;;;;;;;8.50;3.90;;;1.20;99.90;;;;;;4991661;28;20461;-63
2024/01/05 08:51:13;;;;;;;4.70;3.90;;;1.20;99.90;;;;;;4989623;28;20489;-63
2024/01/05 08:53:42;;;;;;;5.40;4.27;;;1.20;99.90;;;;;;4994277;28;20869;-63
2024/01/05 08:56:10;;;;;;;4.43;3.70;;;1.20;99.90;;;;;;5003808;28;21011;-63
2024/01/05 08:58:40;;;;;;;4.97;4.30;;;1.20;99.90;;;;;;5001552;28;21100;-64
2024/01/05 09:01:07;;;;;;;5.00;4.17;;;1.20;99.90;;;;;;5001045;28;21093;-63
2024/01/05 09:03:36;;;;;;;4.90;4.00;;;1.20;99.90;;;;;;4991350;28;20976;-62
2024/01/05 09:06:04;;;;;;;4.33;3.50;;;1.20;99.90;;;;;;4992121;28;20477;-63
2024/01/05 09:08:32;;;;;;;4.30;3.90;;;1.20;99.90;;;;;;5002007;28;20496;-62
2024/01/05 09:11:00;;;;;;;4.53;3.33;;;1.20;99.90;;;;;;4999032;28;20516;-63
2024/01/05 09:13:30;;;;;;;5.03;3.80;;;1.20;99.90;;;;;;4999455;28;20504;-63
2024/01/05 09:15:59;;;;;;;4.23;3.83;;;1.20;99.90;;;;;;4998806;28;20522;-64
2024/01/05 09:18:33;;;;;;;4.83;3.93;;;1.20;99.90;;;;;;5000289;28;20554;-62
2024/01/05 09:21:02;;;;;;;6.00;4.10;;;1.20;99.90;;;;;;5003088;28;20471;-64
2024/01/05 09:23:30;;;;;;;4.30;3.23;;;1.20;99.90;;;;;;4999877;28;20476;-63
2024/01/05 09:25:58;;;;;;;4.53;3.77;;;1.30;99.90;;;;;;4989987;28;20549;-62
2024/01/05 09:28:26;;;;;;;4.13;3.43;;;1.30;99.90;;;;;;5003236;28;20537;-63
2024/01/05 09:30:54;;;;;;;5.17;3.37;;;1.30;99.90;;;;;;4997612;28;20587;-63
2024/01/05 09:33:24;;;;;;;4.17;3.00;;;1.30;99.90;;;;;;4996736;28;20972;-62
2024/01/05 09:35:52;;;;;;;3.63;2.90;;;1.20;99.90;;;;;;4994696;28;20480;-64
2024/01/05 09:38:20;;;;;;;4.73;3.10;;;1.20;99.90;;;;;;4992559;28;20495;-63
2024/01/05 09:40:52;;;;;;;3.30;3.00;;;1.20;99.90;;;;;;4986426;28;20983;-63
2024/01/05 09:43:22;;;;;;;3.90;3.40;;;1.20;99.90;;;;;;4985776;28;20876;-62
2024/01/05 09:45:51;;;;;;;5.10;3.57;;;1.20;99.90;;;;;;4992758;28;20607;-63
2024/01/05 09:48:20;;;;;;;3.37;3.07;;;1.20;99.90;;;;;;5000057;28;20469;-62
2024/01/05 09:50:56;;;;;;;4.83;3.47;;;1.20;99.90;;;;;;4998525;28;20479;-63
2024/01/05 09:53:24;;;;;;;4.13;3.13;;;1.20;99.90;;;;;;4990921;28;20475;-63
2024/01/05 09:55:52;;;;;;;4.47;3.10;;;1.10;99.90;;;;;;4996896;28;20468;-62
2024/01/05 09:58:21;;;;;;;4.23;3.10;;;1.20;99.90;;;;;;4999990;28;20571;-63
2024/01/05 10:00:50;;;;;;;2.97;2.67;;;1.20;99.90;;;;;;4995264;28;20490;-61
2024/01/05 10:03:21;;;;;;;3.33;3.03;;;1.10;99.90;;;;;;4996859;28;20485;-62
2024/01/05 10:05:51;;;;;;;3.50;3.10;;;1.10;99.90;;;;;;4997856;28;21017;-62
2024/01/05 10:08:21;;;;;;;3.00;2.70;;;1.20;99.90;;;;;;5009334;28;20563;-62
2024/01/05 10:10:53;;;;;;;3.23;2.93;;;1.20;99.90;;;;;;5000476;28;20731;-63
2024/01/05 10:13:21;;;;;;;3.23;2.93;;;1.20;99.90;;;;;;5005932;28;21051;-63
2024/01/05 10:15:55;;;;;;;3.03;2.83;;;1.20;99.90;;;;;;5003569;28;20484;-62
2024/01/05 10:18:25;;;;;;;3.27;2.97;;;1.10;99.90;;;;;;5003257;28;20491;-63
2024/01/05 10:20:55;;;;;;;2.83;2.63;;;1.10;99.90;;;;;;4996813;28;20567;-63
2024/01/05 10:23:25;;;;;;;2.93;2.63;;;1.20;99.90;;;;;;4994099;28;20866;-63
2024/01/05 10:25:53;;;;;;;2.90;2.50;;;1.20;99.90;;;;;;4993400;28;20578;-62
2024/01/05 10:28:23;;;;;;;3.87;2.53;;;1.10;99.90;;;;;;4999645;28;20537;-62
2024/01/05 10:30:52;;;;;;;3.40;3.07;;;1.10;99.90;;;;;;5001653;28;21103;-63
2024/01/05 10:33:21;;;;;;;3.13;2.83;;;1.20;99.90;;;;;;5003800;28;20479;-63
2024/01/05 10:35:49;;;;;;;3.47;2.90;;;1.20;99.90;;;;;;4999983;28;20474;-63
2024/01/05 10:38:17;;;;;;;3.80;2.90;;;1.20;99.90;;;;;;5003948;28;20559;-64
2024/01/05 10:40:47;;;;;;;3.43;3.00;;;1.10;99.90;;;;;;4999929;28;21254;-63
2024/01/05 10:43:17;;;;;;;3.23;2.93;;;1.10;99.90;;;;;;4998900;28;20547;-63
2024/01/05 10:45:46;;;;;;;3.50;3.03;;;1.10;99.90;;;;;;4997493;28;20464;-63
2024/01/05 10:48:15;;;;;;;2.93;2.67;;;1.10;99.90;;;;;;5003633;28;20840;-63
2024/01/05 10:50:45;;;;;;;3.07;2.80;;;1.10;99.90;;;;;;5001573;28;20992;-63
2024/01/05 10:53:13;;;;;;;3.60;2.93;;;1.10;99.90;;;;;;5003034;28;20625;-63
2024/01/05 10:55:43;;;;;;;3.43;3.13;;;1.10;99.90;;;;;;5007717;28;20506;-63
2024/01/05 10:58:12;;;;;;;4.93;3.50;;;1.10;99.90;;;;;;5006822;28;20554;-63
2024/01/05 11:00:41;;;;;;;3.93;3.37;;;1.10;99.90;;;;;;5001967;28;20598;-64
2024/01/05 11:03:11;;;;;;;3.70;3.10;;;1.10;99.90;;;;;;4997832;28;22840;-63
2024/01/05 11:05:41;;;;;;;3.00;2.70;;;1.10;99.90;;;;;;4996173;28;20852;-63
2024/01/05 11:08:24;;;;;;;2.80;2.60;;;1.10;99.90;;;;;;4996399;28;20531;-63
2024/01/05 11:11:07;;;;;;;3.20;2.87;;;1.10;99.90;;;;;;5000325;28;20494;-63
2024/01/05 11:14:07;;;;;;;3.33;2.60;;;1.10;99.90;;;;;;4997584;28;20475;-63
2024/01/05 11:17:01;;;;;;;3.57;2.83;;;1.10;99.90;;;;;;4989980;28;21243;-63
2024/01/05 11:19:51;;;;;;;3.00;2.70;;;1.10;99.90;;;;;;4999157;28;20500;-62
2024/01/05 11:22:25;;;;;;;3.03;2.47;;;1.10;99.90;;;;;;4988726;28;20911;-62
2024/01/05 11:24:55;;;;;;;3.57;2.80;;;1.10;99.90;;;;;;4998055;28;20950;-63
2024/01/05 11:27:30;;;;;;;2.70;2.50;;;1.10;99.90;;;;;;5004516;28;20499;-63
2024/01/05 11:30:00;;;;;;;3.03;2.73;;;1.10;99.90;;;;;;5001750;28;20479;-64
2024/01/05 11:32:37;;;;;;;3.50;2.50;;;1.10;99.90;;;;;;5003284;28;20498;-64
2024/01/05 11:35:50;;;;;;;2.83;2.60;;;1.10;99.90;;;;;;5001480;28;20479;-61
2024/01/05 11:38:30;;;;;;;3.30;2.80;;;1.10;99.90;;;;;;5001375;28;21023;-64
2024/01/05 11:40:57;;;;;;;4.33;2.97;;;1.10;99.90;;;;;;4996861;28;20502;-61
2024/01/05 11:43:37;;;;;;;3.10;2.60;;;1.10;99.90;;;;;;4998397;28;20476;-60
2024/01/05 11:46:07;;;;;;;2.77;2.47;;;1.10;99.90;;;;;;5005697;28;20897;-62
2024/01/05 11:48:50;;;;;;;2.60;2.40;;;1.10;99.90;;;;;;4995093;28;20469;-62
2024/01/05 11:51:19;;;;;;;3.60;2.60;;;1.20;99.90;;;;;;4989579;28;20488;-61
2024/01/05 11:53:49;;;;;;;3.67;3.00;;;1.20;99.90;;;;;;4994530;28;20980;-62
2024/01/05 11:56:21;;;;;;;3.00;2.67;;;1.20;99.90;;;;;;4995427;28;20495;-62
2024/01/05 11:58:49;;;;;;;3.50;3.20;;;1.10;99.90;;;;;;4989491;28;24084;-62
2024/01/05 12:01:19;;;;;;;3.67;2.83;;;1.10;99.90;;;;;;5004324;28;21124;-62
2024/01/05 12:03:48;;;;;;;3.20;2.90;;;1.10;99.90;;;;;;4995014;28;20845;-62
2024/01/05 12:06:16;;;;;;;2.70;2.50;;;1.10;99.90;;;;;;4995581;28;20500;-62
2024/01/05 12:08:44;;;;;;;3.20;2.63;;;1.00;99.90;;;;;;4996315;28;20472;-62
2024/01/05 12:11:12;;;;;;;2.60;2.20;;;1.00;99.90;;;;;;4997024;28;20507;-62
2024/01/05 12:13:40;;;;;;;2.60;2.40;;;1.00;99.90;;;;;;4997648;28;20893;-62
2024/01/05 12:16:09;;;;;;;3.20;2.50;;;1.00;99.90;;;;;;4999827;28;20610;-62
2024/01/05 12:18:47;;;;;;;2.60;2.30;;;1.00;99.90;;;;;;4996065;28;20471;-61
2024/01/05 12:21:20;;;;;;;3.00;2.00;;;1.00;99.90;;;;;;5000087;28;20484;-61
2024/01/05 12:23:53;;;;;;;3.83;2.80;;;1.00;99.90;;;;;;4997363;28;20482;-61
2024/01/05 12:26:22;;;;;;;4.70;2.60;;;1.00;99.90;;;;;;4998715;28;20491;-60
2024/01/05 12:28:51;;;;;;;2.33;2.13;;;1.00;99.90;;;;;;4997896;28;20558;-62
2024/01/05 12:31:19;;;;;;;3.77;2.43;;;1.00;99.90;;;;;;5007380;28;20504;-62
2024/01/05 12:33:49;;;;;;;3.10;2.70;;;1.00;99.90;;;;;;4996881;28;20472;-60
2024/01/05 12:36:27;;;;;;;2.60;2.40;;;1.00;99.90;;;;;;4999266;28;20507;-61
2024/01/05 12:39:08;;;;;;;2.97;2.67;;;1.00;99.90;;;;;;5001171;28;20496;-61
2024/01/05 12:41:39;;;;;;;2.70;2.50;;;0.90;99.90;;;;;;4998216;28;20488;-61
2024/01/05 12:44:09;;;;;;;3.47;3.17;;;0.90;99.90;;;;;;4997275;28;20476;-62
2024/01/05 12:46:43;;;;;;;2.97;2.67;;;0.90;99.90;;;;;;5001548;28;20571;-61
2024/01/05 12:49:23;;;;;;;3.50;3.00;;;0.90;99.90;;;;;;5001617;28;20467;-61
2024/01/05 12:51:52;;;;;;;3.23;2.73;;;1.00;99.90;;;;;;4999063;28;21137;-62
2024/01/05 12:54:21;;;;;;;3.17;2.87;;;0.90;99.90;;;;;;4996029;28;20480;-61
2024/01/05 12:56:53;;;;;;;3.20;2.60;;;1.00;99.90;;;;;;5001125;28;20496;-61
2024/01/05 12:59:22;;;;;;;4.60;3.13;;;1.00;99.90;;;;;;4995942;28;20488;-62
2024/01/05 13:01:58;;;;;;;3.30;2.97;;;1.00;99.90;;;;;;5001132;28;20516;-62
2024/01/05 13:04:33;;;;;;;3.47;3.17;;;1.00;99.90;;;;;;4994561;28;20465;-62
2024/01/05 13:07:10;;;;;;;3.20;2.60;;;1.00;99.90;;;;;;4994700;28;20491;-63
2024/01/05 13:09:38;;;;;;;3.67;3.37;;;1.00;99.90;;;;;;5001957;28;20460;-62
2024/01/05 13:12:07;;;;;;;3.50;3.20;;;1.00;99.90;;;;;;5003494;28;20517;-62
2024/01/05 13:14:35;;;;;;;3.47;3.20;;;1.00;99.90;;;;;;5003503;28;20468;-62
2024/01/05 13:17:04;;;;;;;3.73;3.10;;;1.00;99.90;;;;;;4990773;28;21108;-62
2024/01/05 13:19:35;;;;;;;3.50;3.20;;;1.00;99.90;;;;;;4995934;28;20472;-62
2024/01/05 13:22:09;;;;;;;3.33;3.03;;;1.00;99.90;;;;;;4995895;28;20938;-62
2024/01/05 13:24:37;;;;;;;3.40;3.10;;;1.00;99.90;;;;;;4998581;28;20515;-62
2024/01/05 13:27:10;;;;;;;3.43;3.13;;;1.00;99.90;;;;;;5004940;28;20498;-61
2024/01/05 13:29:39;;;;;;;3.50;3.03;;;1.00;99.90;;;;;;4997406;28;20527;-61